createdAt,value
2018-06-23T00:01:00.927Z,97915.09
2018-06-23T00:03:30.359Z,97910.47
2018-06-23T00:05:59.954Z,97906.73
2018-06-23T00:08:29.139Z,97905.23
2018-06-23T00:10:59.148Z,97905.36
2018-06-23T00:13:28.327Z,97904.95
2018-06-23T00:15:57.543Z,97897.77
2018-06-23T00:18:27.140Z,97897.04
2018-06-23T00:20:56.366Z,97900.60
2018-06-23T00:23:25.958Z,97896.97
2018-06-23T00:26:00.494Z,97892.00
2018-06-23T00:28:29.662Z,97893.51
2018-06-23T00:30:59.478Z,97893.95
2018-06-23T00:33:30.351Z,97894.70
2018-06-23T00:35:59.543Z,97893.58
2018-06-23T00:38:28.707Z,97900.47
2018-06-23T00:40:59.178Z,97902.72
2018-06-23T00:43:28.718Z,97897.41
2018-06-23T00:45:58.561Z,97889.31
2018-06-23T00:48:28.351Z,97895.47
2018-06-23T00:50:58.134Z,97896.98
2018-06-23T00:53:27.327Z,97894.70
2018-06-23T00:55:56.615Z,97894.14
2018-06-23T00:58:26.031Z,97896.35
2018-06-23T01:00:55.243Z,97895.90
2018-06-23T01:03:24.794Z,97895.02
2018-06-23T01:05:54.319Z,97900.17
2018-06-23T01:08:23.488Z,97897.13
2018-06-23T01:10:52.731Z,97897.28
2018-06-23T01:13:21.939Z,97887.61
2018-06-23T01:15:51.104Z,97888.80
2018-06-23T01:18:21.010Z,97884.11
2018-06-23T01:20:50.175Z,97884.43
2018-06-23T01:23:19.379Z,97887.31
2018-06-23T01:25:49.020Z,97895.84
2018-06-23T01:28:18.227Z,97894.12
2018-06-23T01:30:47.386Z,97899.98
2018-06-23T01:33:16.582Z,97896.52
2018-06-23T01:35:46.127Z,97895.98
2018-06-23T01:38:15.340Z,97895.00
2018-06-23T01:40:44.513Z,97902.78
2018-06-23T01:43:13.699Z,97899.07
2018-06-23T01:45:42.942Z,97901.44
2018-06-23T01:48:12.157Z,97896.40
2018-06-23T01:50:41.799Z,97888.78
2018-06-23T01:53:11.006Z,97890.48
2018-06-23T01:55:40.179Z,97885.91
2018-06-23T01:58:09.388Z,97889.72
2018-06-23T02:00:38.574Z,97881.17
2018-06-23T02:03:08.027Z,97884.98
2018-06-23T02:05:37.219Z,97873.41
2018-06-23T02:08:06.738Z,97884.77
2018-06-23T02:10:35.926Z,97875.45
2018-06-23T02:13:05.443Z,97876.02
2018-06-23T02:15:39.948Z,97877.35
2018-06-23T02:18:14.966Z,97873.44
2018-06-23T02:20:49.392Z,97877.42
2018-06-23T02:23:23.824Z,97874.65
2018-06-23T02:25:58.211Z,97865.64
2018-06-23T02:28:32.747Z,97874.33
2018-06-23T02:31:07.172Z,97881.17
2018-06-23T02:35:48.558Z,97880.07
2018-06-23T02:38:17.784Z,97882.20
2018-06-23T02:40:46.962Z,97879.53
2018-06-23T02:43:16.187Z,97880.20
2018-06-23T02:45:45.419Z,97887.92
2018-06-23T02:48:14.601Z,97890.08
2018-06-23T02:50:44.396Z,97882.63
2018-06-23T02:53:13.563Z,97883.80
2018-06-23T02:55:43.416Z,97887.70
2018-06-23T02:58:12.895Z,97892.45
2018-06-23T03:00:42.114Z,97888.58
2018-06-23T03:03:11.313Z,97891.08
2018-06-23T03:05:40.518Z,97886.35
2018-06-23T03:08:09.704Z,97879.67
2018-06-23T03:10:38.932Z,97887.27
2018-06-23T03:13:08.694Z,97883.78
2018-06-23T03:15:38.741Z,97879.86
2018-06-23T03:18:08.219Z,97880.09
2018-06-23T03:20:37.457Z,97875.94
2018-06-23T03:23:07.027Z,97883.14
2018-06-23T03:25:36.559Z,97882.77
2018-06-23T03:28:05.799Z,97881.48
2018-06-23T03:30:35.218Z,97891.05
2018-06-23T03:33:04.714Z,97887.06
2018-06-23T03:35:34.191Z,97890.50
2018-06-23T03:38:03.734Z,97888.94
2018-06-23T03:40:33.031Z,97891.16
2018-06-23T03:43:02.186Z,97892.45
2018-06-23T03:45:31.420Z,97889.98
2018-06-23T03:48:00.659Z,97885.44
2018-06-23T03:50:30.015Z,97889.00
2018-06-23T03:52:59.204Z,97883.94
2018-06-23T03:56:52.838Z,97895.00
2018-06-23T03:59:22.018Z,97895.94
2018-06-23T04:01:52.254Z,97892.27
2018-06-23T04:04:21.643Z,97894.48
2018-06-23T04:06:50.876Z,97897.22
2018-06-23T04:09:20.198Z,97899.00
2018-06-23T04:11:49.422Z,97893.94
2018-06-23T04:14:18.610Z,97895.28
2018-06-23T04:16:47.878Z,97898.39
2018-06-23T04:19:17.007Z,97896.54
2018-06-23T04:21:46.743Z,97892.59
2018-06-23T04:24:16.708Z,97893.81
2018-06-23T04:26:46.672Z,97895.36
2018-06-23T04:29:16.237Z,97893.08
2018-06-23T04:31:45.607Z,97889.49
2018-06-23T04:34:14.851Z,97886.70
2018-06-23T04:36:44.291Z,97893.22
2018-06-23T04:39:13.499Z,97890.66
2018-06-23T04:41:43.051Z,97899.59
2018-06-23T04:44:12.226Z,97901.30
2018-06-23T04:46:41.443Z,97898.61
2018-06-23T04:49:10.695Z,97898.77
2018-06-23T04:51:39.900Z,97905.01
2018-06-23T04:54:09.546Z,97907.30
2018-06-23T04:56:38.796Z,97904.93
2018-06-23T04:59:08.264Z,97912.23
2018-06-23T05:01:37.439Z,97908.45
2018-06-23T05:04:07.206Z,97910.41
2018-06-23T05:06:36.662Z,97915.08
2018-06-23T05:09:07.272Z,97916.30
2018-06-23T05:11:36.496Z,97912.37
2018-06-23T05:14:06.027Z,97910.02
2018-06-23T05:16:35.218Z,97913.01
2018-06-23T05:19:04.439Z,97910.73
2018-06-23T05:21:33.643Z,97910.28
2018-06-23T05:24:03.231Z,97917.63
2018-06-23T05:26:32.443Z,97921.17
2018-06-23T05:29:01.660Z,97911.22
2018-06-23T05:31:30.847Z,97921.89
2018-06-23T05:34:00.431Z,97917.44
2018-06-23T05:36:29.626Z,97918.16
2018-06-23T05:38:58.859Z,97911.28
2018-06-23T05:41:28.355Z,97912.33
2018-06-23T05:43:57.906Z,97916.44
2018-06-23T05:46:27.335Z,97923.55
2018-06-23T05:48:58.929Z,97932.62
2018-06-23T05:51:28.675Z,97926.96
2018-06-23T05:53:57.927Z,97922.11
2018-06-23T05:56:27.111Z,97928.37
2018-06-23T05:58:56.853Z,97931.39
2018-06-23T06:01:26.039Z,97926.94
2018-06-23T06:03:55.262Z,97935.25
2018-06-23T06:06:24.462Z,97923.67
2018-06-23T06:08:53.787Z,97929.14
2018-06-23T06:11:22.988Z,97931.70
2018-06-23T06:13:52.438Z,97933.68
2018-06-23T06:16:42.375Z,97934.06
2018-06-23T06:19:11.583Z,97936.66
2018-06-23T06:21:40.882Z,97938.97
2018-06-23T06:24:10.067Z,97936.02
2018-06-23T06:26:39.278Z,97939.58
2018-06-23T06:29:08.479Z,97931.55
2018-06-23T06:31:37.697Z,97931.81
2018-06-23T06:34:06.883Z,97944.27
2018-06-23T06:36:36.388Z,97937.67
2018-06-23T06:39:07.320Z,97943.67
2018-06-23T06:41:36.538Z,97947.76
2018-06-23T06:44:06.536Z,97954.80
2018-06-23T06:46:36.155Z,97949.93
2018-06-23T06:49:05.348Z,97957.81
2018-06-23T06:51:34.848Z,97947.17
2018-06-23T06:54:04.199Z,97954.80
2018-06-23T06:56:33.387Z,97945.58
2018-06-23T06:59:03.325Z,97953.95
2018-06-23T07:01:32.526Z,97952.08
2018-06-23T07:04:01.977Z,97950.86
2018-06-23T07:06:31.473Z,97951.03
2018-06-23T07:09:00.980Z,97945.25
2018-06-23T07:11:30.203Z,97944.75
2018-06-23T07:13:59.401Z,97944.42
2018-06-23T07:16:28.612Z,97946.41
2018-06-23T07:18:58.034Z,97940.72
2018-06-23T07:21:27.799Z,97937.95
2018-06-23T07:23:57.100Z,97935.73
2018-06-23T07:26:26.211Z,97928.50
2018-06-23T07:28:55.775Z,97933.22
2018-06-23T07:31:24.971Z,97932.95
2018-06-23T07:33:54.808Z,97941.11
2018-06-23T07:36:23.987Z,97944.54
2018-06-23T07:38:53.330Z,97942.37
2018-06-23T07:41:22.891Z,97942.04
2018-06-23T07:43:52.611Z,97920.48
2018-06-23T07:46:22.545Z,97918.41
2018-06-23T07:48:51.958Z,97921.48
2018-06-23T07:51:21.546Z,97928.73
2018-06-23T07:53:51.055Z,97929.39
2018-06-23T07:56:20.406Z,97909.59
2018-06-23T07:58:49.455Z,97913.78
2018-06-23T08:01:18.634Z,97913.75
2018-06-23T08:03:47.869Z,97904.87
2018-06-23T08:06:17.511Z,97903.39
2018-06-23T08:08:46.714Z,97905.58
2018-06-23T08:11:16.003Z,97906.97
2018-06-23T08:13:45.244Z,97905.76
2018-06-23T08:16:14.462Z,97905.36
2018-06-23T08:18:44.115Z,97887.55
2018-06-23T08:21:13.599Z,97882.66
2018-06-23T08:23:42.812Z,97894.23
2018-06-23T08:26:12.023Z,97900.29
2018-06-23T08:28:41.215Z,97901.34
2018-06-23T08:31:10.647Z,97892.34
2018-06-23T08:33:39.826Z,97892.86
2018-06-23T08:36:09.050Z,97896.61
2018-06-23T08:38:38.483Z,97901.60
2018-06-23T08:41:07.683Z,97898.58
2018-06-23T08:43:36.969Z,97892.22
2018-06-23T08:46:07.211Z,97893.12
2018-06-23T08:48:36.603Z,97895.30
2018-06-23T08:51:05.848Z,97887.14
2018-06-23T08:53:35.042Z,97895.84
2018-06-23T08:56:05.071Z,97892.25
2018-06-23T08:58:34.766Z,97884.98
2018-06-23T09:01:04.271Z,97883.16
2018-06-23T09:03:33.470Z,97877.29
2018-06-23T09:06:02.691Z,97869.19
2018-06-23T09:08:31.891Z,97879.34
2018-06-23T09:11:01.452Z,97882.24
2018-06-23T09:13:30.642Z,97881.13
2018-06-23T09:15:59.853Z,97893.96
2018-06-23T09:18:29.306Z,97894.09
2018-06-23T09:20:58.534Z,97896.27
2018-06-23T09:23:28.482Z,97892.73
2018-06-23T09:25:57.712Z,97889.95
2018-06-23T09:28:27.994Z,97889.13
2018-06-23T09:30:57.618Z,97900.68
2018-06-23T09:33:26.807Z,97896.38
2018-06-23T09:35:56.843Z,97897.25
2018-06-23T09:38:26.071Z,97894.84
2018-06-23T09:40:55.735Z,97889.09
2018-06-23T09:43:24.930Z,97890.84
2018-06-23T09:45:54.207Z,97887.78
2018-06-23T09:48:23.439Z,97898.37
2018-06-23T09:53:52.074Z,97901.52
2018-06-23T09:56:21.461Z,97893.28
2018-06-23T09:58:50.886Z,97888.36
2018-06-23T10:01:20.585Z,97881.78
2018-06-23T10:03:49.983Z,97884.98
2018-06-23T10:06:19.255Z,97891.19
2018-06-23T10:08:48.459Z,97894.78
2018-06-23T10:11:17.667Z,97888.11
2018-06-23T10:13:46.850Z,97890.83
2018-06-23T10:16:16.039Z,97889.92
2018-06-23T10:18:45.356Z,97905.47
2018-06-23T10:21:14.567Z,97896.84
2018-06-23T10:23:44.018Z,97901.66
2018-06-23T10:26:13.177Z,97901.63
2018-06-23T10:28:42.370Z,97902.31
2018-06-23T10:31:11.571Z,97916.77
2018-06-23T10:37:12.126Z,97897.92
2018-06-23T10:39:41.727Z,97905.81
2018-06-23T10:42:10.932Z,97906.52
2018-06-23T10:44:40.230Z,97909.42
2018-06-23T10:47:09.423Z,97906.45
2018-06-23T10:49:38.603Z,97916.57
2018-06-23T10:52:08.439Z,97910.08
2018-06-23T10:54:37.601Z,97906.18
2018-06-23T10:57:07.252Z,97902.55
2018-06-23T10:59:36.443Z,97896.00
2018-06-23T11:02:05.702Z,97883.64
2018-06-23T11:04:35.027Z,97887.18
2018-06-23T11:07:04.478Z,97886.88
2018-06-23T11:09:33.692Z,97894.93
2018-06-23T11:12:02.901Z,97890.47
2018-06-23T11:14:32.338Z,97900.77
2018-06-23T11:17:01.495Z,97895.98
2018-06-23T11:19:30.982Z,97894.02
2018-06-23T11:22:00.162Z,97900.79
2018-06-23T11:24:29.507Z,97898.25
2018-06-23T11:26:59.432Z,97905.52
2018-06-23T11:29:28.618Z,97900.82
2018-06-23T11:31:59.500Z,97896.75
2018-06-23T11:34:30.126Z,97893.52
2018-06-23T11:36:59.571Z,97901.77
2018-06-23T11:39:28.761Z,97895.66
2018-06-23T11:41:57.943Z,97901.42
2018-06-23T11:44:27.138Z,97902.20
2018-06-23T11:46:56.595Z,97901.55
2018-06-23T11:49:25.789Z,97902.90
2018-06-23T11:51:54.979Z,97898.92
2018-06-23T11:54:24.187Z,97896.27
2018-06-23T11:56:53.366Z,97886.80
2018-06-23T11:59:22.836Z,97893.05
2018-06-23T12:01:52.952Z,97897.84
2018-06-23T12:04:24.530Z,97895.16
2018-06-23T12:06:54.422Z,97892.76
2018-06-23T12:09:24.830Z,97892.77
2018-06-23T12:11:54.617Z,97892.20
2018-06-23T12:14:24.657Z,97888.42
2018-06-23T12:16:53.826Z,97889.05
2018-06-23T12:19:23.039Z,97889.52
2018-06-23T12:21:52.563Z,97890.75
2018-06-23T12:24:22.187Z,97887.53
2018-06-23T12:26:51.582Z,97883.95
2018-06-23T12:29:21.196Z,97888.42
2018-06-23T12:31:50.439Z,97882.97
2018-06-23T12:34:20.056Z,97878.37
2018-06-23T12:36:50.011Z,97889.13
2018-06-23T12:39:19.184Z,97880.00
2018-06-23T12:41:48.411Z,97887.59
2018-06-23T12:44:17.716Z,97882.72
2018-06-23T12:46:46.919Z,97887.60
2018-06-23T12:49:16.601Z,97887.60
2018-06-23T12:51:45.803Z,97888.40
2018-06-23T12:54:14.998Z,97886.45
2018-06-23T12:56:44.287Z,97880.22
2018-06-23T12:59:13.488Z,97872.44
2018-06-23T13:01:43.185Z,97881.38
2018-06-23T13:04:12.582Z,97880.25
2018-06-23T13:06:42.135Z,97886.95
2018-06-23T13:09:12.760Z,97881.63
2018-06-23T13:11:41.959Z,97879.59
2018-06-23T13:14:11.432Z,97876.88
2018-06-23T13:16:40.659Z,97875.67
2018-06-23T13:19:10.155Z,97875.55
2018-06-23T13:21:39.776Z,97878.84
2018-06-23T13:24:09.262Z,97875.27
2018-06-23T13:26:38.890Z,97875.75
2018-06-23T13:29:08.099Z,97871.29
2018-06-23T13:31:37.685Z,97871.34
2018-06-23T13:34:07.348Z,97873.50
2018-06-23T13:36:36.825Z,97870.27
2018-06-23T13:39:08.076Z,97868.91
2018-06-23T13:41:37.380Z,97864.85
2018-06-23T13:44:06.942Z,97858.87
2018-06-23T13:46:36.127Z,97851.77
2018-06-23T13:49:06.499Z,97847.70
2018-06-23T13:51:36.163Z,97852.48
2018-06-23T13:54:05.443Z,97847.86
2018-06-23T13:56:35.291Z,97845.50
2018-06-23T13:59:04.941Z,97847.12
2018-06-23T14:01:34.163Z,97838.00
2018-06-23T14:04:03.567Z,97840.91
2018-06-23T14:06:32.943Z,97837.19
2018-06-23T14:09:02.475Z,97843.70
2018-06-23T14:11:31.671Z,97836.91
2018-06-23T14:14:01.495Z,97834.09
2018-06-23T14:16:32.489Z,97835.80
2018-06-23T14:19:01.889Z,97829.83
2018-06-23T14:21:31.088Z,97816.55
2018-06-23T14:24:00.496Z,97812.21
2018-06-23T14:26:29.963Z,97821.11
2018-06-23T14:28:59.575Z,97820.49
2018-06-23T14:31:28.943Z,97817.94
2018-06-23T14:33:59.692Z,97821.41
2018-06-23T14:36:31.151Z,97819.82
2018-06-23T14:39:01.015Z,97817.12
2018-06-23T14:41:30.224Z,97815.54
2018-06-23T14:43:59.634Z,97812.83
2018-06-23T14:46:29.234Z,97817.97
2018-06-23T14:48:58.815Z,97822.78
2018-06-23T14:51:28.691Z,97817.17
2018-06-23T14:53:57.882Z,97825.55
2018-06-23T14:56:27.160Z,97824.41
2018-06-23T14:58:56.355Z,97816.80
2018-06-23T15:01:25.776Z,97818.90
2018-06-23T15:03:55.664Z,97809.83
2018-06-23T15:06:24.874Z,97805.22
2018-06-23T15:09:05.603Z,97811.89
2018-06-23T15:11:46.842Z,97812.30
2018-06-23T15:14:16.079Z,97806.95
2018-06-23T15:16:45.285Z,97807.38
2018-06-23T15:19:14.895Z,97810.03
2018-06-23T15:21:44.134Z,97812.92
2018-06-23T15:24:13.723Z,97813.73
2018-06-23T15:26:43.669Z,97810.00
2018-06-23T15:29:13.139Z,97812.28
2018-06-23T15:31:42.352Z,97806.56
2018-06-23T15:34:11.751Z,97807.36
2018-06-23T15:36:41.870Z,97799.39
2018-06-23T15:39:12.087Z,97800.27
2018-06-23T15:41:41.350Z,97791.09
2018-06-23T15:44:11.066Z,97792.23
2018-06-23T15:46:40.811Z,97799.39
2018-06-23T15:49:10.395Z,97797.09
2018-06-23T15:51:39.842Z,97789.79
2018-06-23T15:54:09.019Z,97785.61
2018-06-23T15:56:38.648Z,97778.33
2018-06-23T15:59:07.852Z,97790.63
2018-06-23T16:01:37.115Z,97779.70
2018-06-23T16:04:07.225Z,97769.91
2018-06-23T16:06:36.655Z,97774.33
2018-06-23T16:09:08.808Z,97771.48
2018-06-23T16:11:38.006Z,97773.09
2018-06-23T16:14:07.271Z,97775.83
2018-06-23T16:16:36.562Z,97767.36
2018-06-23T16:19:06.082Z,97766.29
2018-06-23T16:21:35.326Z,97762.66
2018-06-23T16:24:04.856Z,97763.48
2018-06-23T16:26:34.062Z,97759.24
2018-06-23T16:29:03.267Z,97756.38
2018-06-23T16:31:32.495Z,97755.08
2018-06-23T16:34:02.186Z,97757.25
2018-06-23T16:36:31.408Z,97754.20
2018-06-23T16:39:01.066Z,97746.63
2018-06-23T16:41:30.269Z,97743.94
2018-06-23T16:43:59.480Z,97744.80
2018-06-23T16:46:28.783Z,97736.20
2018-06-23T16:48:58.007Z,97735.94
2018-06-23T16:51:27.518Z,97724.02
2018-06-23T16:53:58.927Z,97722.94
2018-06-23T16:56:28.128Z,97719.42
2018-06-23T16:58:57.330Z,97719.16
2018-06-23T17:01:26.516Z,97714.52
2018-06-23T17:03:56.334Z,97712.88
2018-06-23T17:06:25.507Z,97718.25
2018-06-23T17:08:54.711Z,97715.06
2018-06-23T17:11:23.936Z,97717.77
2018-06-23T17:13:53.775Z,97714.25
2018-06-23T17:16:22.956Z,97718.59
2018-06-23T17:18:52.138Z,97709.94
2018-06-23T17:21:21.338Z,97713.45
2018-06-23T17:23:50.804Z,97715.09
2018-06-23T17:26:20.936Z,97712.67
2018-06-23T17:28:50.683Z,97708.33
2018-06-23T17:31:20.098Z,97702.36
2018-06-23T17:33:49.661Z,97706.69
2018-06-23T17:36:19.540Z,97707.23
2018-06-23T17:38:48.752Z,97706.42
2018-06-23T17:41:18.143Z,97696.41
2018-06-23T17:43:47.376Z,97701.30
2018-06-23T17:46:16.581Z,97705.59
2018-06-23T17:48:45.903Z,97708.31
2018-06-23T17:51:16.271Z,97709.97
2018-06-23T17:53:45.490Z,97701.53
2018-06-23T17:56:14.683Z,97706.16
2018-06-23T17:58:44.921Z,97705.62
2018-06-23T18:01:14.425Z,97706.66
2018-06-23T18:03:43.666Z,97706.12
2018-06-23T18:06:13.222Z,97701.78
2018-06-23T18:08:42.371Z,97700.97
2018-06-23T18:11:12.014Z,97696.64
2018-06-23T18:13:41.351Z,97696.91
2018-06-23T18:16:10.867Z,97700.69
2018-06-23T18:18:40.992Z,97698.25
2018-06-23T18:21:10.192Z,97693.13
2018-06-23T18:23:39.786Z,97701.45
2018-06-23T18:26:09.011Z,97700.06
2018-06-23T18:28:38.547Z,97700.05
2018-06-23T18:31:09.075Z,97700.00
2018-06-23T18:33:38.726Z,97703.19
2018-06-23T18:36:08.355Z,97706.69
2018-06-23T18:38:37.567Z,97705.58
2018-06-23T18:41:07.170Z,97704.12
2018-06-23T18:43:36.648Z,97698.92
2018-06-23T18:46:06.259Z,97699.11
2018-06-23T18:48:36.577Z,97702.81
2018-06-23T18:51:06.137Z,97698.17
2018-06-23T18:53:35.434Z,97701.36
2018-06-23T18:56:05.061Z,97695.41
2018-06-23T18:58:34.703Z,97698.91
2018-06-23T19:01:04.192Z,97693.94
2018-06-23T19:03:33.386Z,97698.52
2018-06-23T19:06:02.863Z,97692.52
2018-06-23T19:08:32.458Z,97693.01
2018-06-23T19:11:02.671Z,97695.37
2018-06-23T19:13:31.863Z,97696.88
2018-06-23T19:16:01.094Z,97694.21
2018-06-23T19:18:30.547Z,97703.97
2018-06-23T19:20:59.780Z,97712.81
2018-06-23T19:23:28.998Z,97706.66
2018-06-23T19:25:58.220Z,97709.98
2018-06-23T19:28:27.752Z,97710.31
2018-06-23T19:30:57.147Z,97707.29
2018-06-23T19:33:26.345Z,97703.56
2018-06-23T19:35:55.671Z,97709.98
2018-06-23T19:38:24.871Z,97706.42
2018-06-23T19:40:54.584Z,97705.42
2018-06-23T19:43:23.864Z,97712.06
2018-06-23T19:45:53.059Z,97710.63
2018-06-23T19:48:22.382Z,97711.27
2018-06-23T19:50:51.598Z,97712.53
2018-06-23T19:53:20.867Z,97706.89
2018-06-23T19:55:50.999Z,97707.36
2018-06-23T19:58:20.612Z,97707.36
2018-06-23T20:00:49.811Z,97709.20
2018-06-23T20:03:19.038Z,97704.47
2018-06-23T20:05:48.218Z,97702.19
2018-06-23T20:08:17.622Z,97715.02
2018-06-23T20:10:46.830Z,97717.35
2018-06-23T20:13:16.047Z,97721.45
2018-06-23T20:15:45.566Z,97718.44
2018-06-23T20:18:15.097Z,97724.45
2018-06-23T20:20:45.192Z,97720.66
2018-06-23T20:23:14.462Z,97720.78
2018-06-23T20:25:44.037Z,97721.05
2018-06-23T20:28:13.907Z,97720.56
2018-06-23T20:30:43.933Z,97717.94
2018-06-23T20:33:13.150Z,97724.22
2018-06-23T20:35:42.425Z,97723.29
2018-06-23T20:38:11.670Z,97723.29
2018-06-23T20:40:40.874Z,97725.51
2018-06-23T20:43:10.314Z,97732.88
2018-06-23T20:45:39.498Z,97725.92
2018-06-23T20:48:10.018Z,97726.30
2018-06-23T20:50:39.212Z,97727.06
2018-06-23T20:53:09.464Z,97718.03
2018-06-23T20:55:38.754Z,97718.91
2018-06-23T20:58:07.958Z,97715.87
2018-06-23T21:00:37.436Z,97713.91
2018-06-23T21:03:06.658Z,97709.67
2018-06-23T21:05:36.219Z,97719.27
2018-06-23T21:08:05.444Z,97715.14
2018-06-23T21:10:42.187Z,97710.12
2018-06-23T21:13:11.800Z,97713.56
2018-06-23T21:15:41.810Z,97714.95
2018-06-23T21:18:11.291Z,97714.54
2018-06-23T21:20:41.079Z,97717.69
2018-06-23T21:23:11.746Z,97712.22
2018-06-23T21:25:40.966Z,97707.93
2018-06-23T21:28:10.329Z,97705.25
2018-06-23T21:30:39.648Z,97706.20
2018-06-23T21:33:09.338Z,97700.66
2018-06-23T21:35:38.894Z,97696.89
2018-06-23T21:38:08.771Z,97690.55
2018-06-23T21:40:38.119Z,97690.36
2018-06-23T21:43:07.727Z,97693.98
2018-06-23T21:45:36.938Z,97694.73
2018-06-23T21:48:06.143Z,97698.85
2018-06-23T21:50:35.363Z,97704.95
2018-06-23T21:53:04.921Z,97699.33
2018-06-23T21:55:34.219Z,97695.57
2018-06-23T21:58:04.494Z,97700.86
2018-06-23T22:00:36.631Z,97694.23
2018-06-23T22:03:07.258Z,97703.42
2018-06-23T22:05:36.558Z,97700.29
2018-06-23T22:08:06.858Z,97693.65
2018-06-23T22:10:36.142Z,97704.70
2018-06-23T22:13:05.499Z,97700.09
2018-06-23T22:15:34.711Z,97695.47
2018-06-23T22:18:03.926Z,97697.16
2018-06-23T22:20:33.711Z,97691.81
2018-06-23T22:23:02.920Z,97692.12
2018-06-23T22:25:32.133Z,97695.66
2018-06-23T22:28:01.349Z,97688.92
2018-06-23T22:30:30.590Z,97693.98
2018-06-23T22:32:59.989Z,97694.59
2018-06-23T22:35:29.531Z,97687.89
2018-06-23T22:37:58.861Z,97685.34
2018-06-23T22:40:28.067Z,97690.44
2018-06-23T22:42:57.257Z,97692.98
2018-06-23T22:45:26.883Z,97694.06
2018-06-23T22:47:56.087Z,97687.62
2018-06-23T22:50:25.269Z,97691.64
2018-06-23T22:52:54.486Z,97686.16
2018-06-23T22:55:24.894Z,97687.62
2018-06-23T22:57:54.135Z,97687.89
2018-06-23T23:00:23.537Z,97681.84
2018-06-23T23:02:52.734Z,97682.27
2018-06-23T23:05:21.930Z,97683.64
2018-06-23T23:07:51.139Z,97678.56
2018-06-23T23:10:20.311Z,97680.97
2018-06-23T23:12:49.581Z,97677.69
2018-06-23T23:15:19.042Z,97681.30
2018-06-23T23:17:48.943Z,97677.42
2018-06-23T23:20:18.678Z,97675.08
2018-06-23T23:22:47.883Z,97683.39
2018-06-23T23:25:17.422Z,97670.02
2018-06-23T23:27:46.628Z,97673.02
2018-06-23T23:30:16.035Z,97675.61
2018-06-23T23:32:45.208Z,97672.31
2018-06-23T23:35:14.419Z,97676.79
2018-06-23T23:37:43.975Z,97677.74
2018-06-23T23:40:13.156Z,97673.04
2018-06-23T23:42:42.602Z,97661.85
2018-06-23T23:45:11.771Z,97660.47
2018-06-23T23:47:40.947Z,97660.33
2018-06-23T23:50:10.162Z,97654.80
2018-06-23T23:52:39.379Z,97660.87
2018-06-23T23:55:08.566Z,97655.91
2018-06-23T23:57:37.766Z,97651.34
